createdAt,value
2019-06-27T00:01:43.946Z,19.50
2019-06-27T00:04:12.812Z,19.40
2019-06-27T00:06:41.654Z,19.40
2019-06-27T00:09:11.856Z,19.40
2019-06-27T00:11:40.585Z,19.30
2019-06-27T00:14:09.639Z,19.20
2019-06-27T00:16:38.494Z,19.30
2019-06-27T00:19:07.379Z,19.40
2019-06-27T00:21:36.141Z,19.40
2019-06-27T00:24:05.028Z,19.40
2019-06-27T00:26:36.755Z,19.40
2019-06-27T00:29:05.634Z,19.30
2019-06-27T00:31:34.412Z,19.30
2019-06-27T00:34:03.386Z,19.20
2019-06-27T00:36:32.218Z,19.10
2019-06-27T00:39:01.182Z,19.10
2019-06-27T00:41:30.516Z,19.00
2019-06-27T00:44:01.722Z,19.00
2019-06-27T00:46:30.762Z,19.00
2019-06-27T00:48:59.553Z,18.90
2019-06-27T00:51:28.827Z,18.90
2019-06-27T00:53:57.847Z,18.90
2019-06-27T00:56:26.740Z,18.90
2019-06-27T00:58:55.628Z,18.80
2019-06-27T01:01:24.743Z,18.80
2019-06-27T01:03:53.819Z,18.80
2019-06-27T01:06:22.625Z,18.80
2019-06-27T01:08:51.603Z,18.80
2019-06-27T01:11:20.462Z,18.80
2019-06-27T01:13:49.386Z,18.80
2019-06-27T01:16:18.280Z,18.80
2019-06-27T01:18:47.039Z,18.80
2019-06-27T01:21:15.930Z,18.70
2019-06-27T01:23:45.197Z,18.70
2019-06-27T01:26:14.073Z,18.60
2019-06-27T01:28:42.803Z,18.70
2019-06-27T01:31:11.779Z,18.60
2019-06-27T01:33:40.694Z,18.60
2019-06-27T01:36:09.426Z,18.60
2019-06-27T01:38:38.227Z,18.60
2019-06-27T01:41:07.133Z,18.60
2019-06-27T01:43:35.955Z,18.70
2019-06-27T01:46:05.112Z,18.80
2019-06-27T01:48:34.145Z,18.90
2019-06-27T01:51:03.171Z,18.90
2019-06-27T01:53:32.027Z,18.90
2019-06-27T01:56:01.412Z,18.80
2019-06-27T01:58:30.461Z,18.70
2019-06-27T02:00:59.177Z,18.60
2019-06-27T02:03:28.043Z,18.50
2019-06-27T02:05:56.932Z,18.50
2019-06-27T02:08:26.034Z,18.60
2019-06-27T02:10:55.133Z,18.70
2019-06-27T02:13:24.018Z,18.70
2019-06-27T02:15:52.935Z,18.60
2019-06-27T02:18:21.780Z,18.70
2019-06-27T02:20:50.614Z,18.70
2019-06-27T02:23:19.789Z,18.60
2019-06-27T02:25:48.559Z,18.60
2019-06-27T02:28:17.570Z,18.50
2019-06-27T02:30:46.669Z,18.50
2019-06-27T02:33:15.766Z,18.40
2019-06-27T02:35:44.629Z,18.50
2019-06-27T02:38:13.545Z,18.50
2019-06-27T02:40:42.441Z,18.50
2019-06-27T02:43:11.159Z,18.40
2019-06-27T02:45:40.021Z,18.30
2019-06-27T02:48:08.928Z,18.20
2019-06-27T02:50:37.815Z,18.20
2019-06-27T02:53:06.547Z,18.20
2019-06-27T02:55:36.107Z,18.20
2019-06-27T02:58:27.546Z,18.20
2019-06-27T03:00:35.394Z,18.20
2019-06-27T03:03:04.560Z,18.20
2019-06-27T03:05:33.332Z,18.20
2019-06-27T03:08:02.392Z,18.10
2019-06-27T03:10:31.084Z,18.00
2019-06-27T03:12:59.946Z,18.00
2019-06-27T03:15:28.683Z,18.00
2019-06-27T03:17:57.379Z,18.00
2019-06-27T03:20:26.201Z,18.10
2019-06-27T03:22:55.757Z,18.10
2019-06-27T03:25:24.653Z,18.30
2019-06-27T03:27:53.397Z,18.20
2019-06-27T03:30:24.285Z,18.00
2019-06-27T03:32:53.161Z,17.90
2019-06-27T03:35:21.958Z,17.90
2019-06-27T03:37:50.720Z,17.90
2019-06-27T03:40:19.530Z,17.90
2019-06-27T03:42:48.217Z,17.90
2019-06-27T03:45:17.107Z,18.00
2019-06-27T03:47:46.410Z,18.10
2019-06-27T03:50:15.775Z,18.10
2019-06-27T03:52:44.812Z,18.20
2019-06-27T03:55:13.707Z,18.30
2019-06-27T03:57:45.380Z,18.50
2019-06-27T04:00:25.603Z,18.70
2019-06-27T04:02:54.372Z,18.80
2019-06-27T04:05:23.191Z,19.00
2019-06-27T04:07:52.084Z,19.10
2019-06-27T04:10:20.937Z,19.30
2019-06-27T04:12:49.874Z,19.40
2019-06-27T04:15:18.964Z,19.50
2019-06-27T04:17:47.960Z,19.70
2019-06-27T04:20:16.822Z,19.80
2019-06-27T04:22:45.951Z,20.00
2019-06-27T04:25:14.690Z,20.30
2019-06-27T04:27:43.731Z,20.60
2019-06-27T04:30:12.984Z,20.80
2019-06-27T04:32:41.922Z,21.00
2019-06-27T04:35:10.954Z,21.10
2019-06-27T04:37:39.746Z,21.10
2019-06-27T04:40:08.923Z,21.30
2019-06-27T04:42:37.770Z,21.60
2019-06-27T04:45:10.482Z,21.80
2019-06-27T04:47:39.120Z,21.80
2019-06-27T04:50:08.672Z,21.80
2019-06-27T04:52:38.481Z,21.90
2019-06-27T04:55:07.832Z,22.20
2019-06-27T04:57:36.999Z,22.60
2019-06-27T05:00:06.230Z,22.90
2019-06-27T05:02:35.012Z,23.10
2019-06-27T05:05:04.584Z,23.40
2019-06-27T05:07:33.263Z,23.60
2019-06-27T05:10:02.261Z,24.00
2019-06-27T05:12:30.985Z,24.20
2019-06-27T05:14:59.731Z,24.80
2019-06-27T05:17:28.729Z,25.60
2019-06-27T05:19:57.541Z,26.40
2019-06-27T05:22:26.723Z,26.60
2019-06-27T05:24:55.813Z,26.80
2019-06-27T05:27:24.509Z,27.30
2019-06-27T05:30:08.171Z,27.70
2019-06-27T05:32:24.125Z,28.20
2019-06-27T05:34:53.016Z,28.80
2019-06-27T05:37:22.011Z,29.30
2019-06-27T05:39:51.220Z,29.20
2019-06-27T05:42:20.677Z,28.30
2019-06-27T05:44:49.453Z,27.60
2019-06-27T05:47:18.271Z,27.30
2019-06-27T05:49:46.941Z,27.00
2019-06-27T05:52:15.868Z,27.00
2019-06-27T05:54:44.838Z,27.00
2019-06-27T05:57:13.577Z,26.90
2019-06-27T05:59:43.330Z,26.80
2019-06-27T06:02:12.241Z,26.70
2019-06-27T06:04:41.318Z,26.80
2019-06-27T06:07:10.110Z,27.20
2019-06-27T06:09:38.915Z,27.50
2019-06-27T06:12:07.688Z,27.50
2019-06-27T06:14:36.416Z,27.40
2019-06-27T06:17:05.210Z,27.40
2019-06-27T06:19:34.012Z,27.70
2019-06-27T06:22:02.742Z,27.80
2019-06-27T06:24:31.535Z,27.70
2019-06-27T06:27:00.200Z,27.80
2019-06-27T06:29:28.861Z,28.50
2019-06-27T06:31:57.574Z,29.00
2019-06-27T06:34:26.416Z,29.20
2019-06-27T06:36:55.273Z,29.40
2019-06-27T06:39:24.194Z,29.50
2019-06-27T06:41:52.845Z,30.20
2019-06-27T06:44:21.987Z,30.50
2019-06-27T06:46:50.887Z,30.70
2019-06-27T06:49:20.588Z,30.70
2019-06-27T06:51:49.956Z,30.40
2019-06-27T06:54:18.878Z,30.30
2019-06-27T06:56:49.357Z,30.30
2019-06-27T06:59:18.259Z,30.20
2019-06-27T07:01:47.888Z,30.30
2019-06-27T07:04:16.758Z,30.60
2019-06-27T07:06:46.083Z,30.60
2019-06-27T07:09:16.132Z,31.10
2019-06-27T07:11:44.890Z,31.70
2019-06-27T07:14:13.762Z,32.30
2019-06-27T07:16:43.551Z,31.50
2019-06-27T07:19:12.467Z,30.20
2019-06-27T07:21:41.729Z,29.90
2019-06-27T07:24:10.692Z,29.90
2019-06-27T07:26:39.770Z,29.90
2019-06-27T07:29:08.512Z,31.20
2019-06-27T07:31:37.368Z,32.20
2019-06-27T07:34:06.116Z,32.90
2019-06-27T07:36:34.848Z,33.50
2019-06-27T07:39:05.448Z,31.20
2019-06-27T07:41:34.496Z,31.50
2019-06-27T07:44:04.691Z,30.80
2019-06-27T07:46:33.521Z,31.00
2019-06-27T07:49:02.424Z,30.60
2019-06-27T07:51:31.253Z,30.40
2019-06-27T07:54:01.418Z,30.00
2019-06-27T07:56:30.356Z,30.00
2019-06-27T07:58:59.361Z,30.30
2019-06-27T08:01:35.045Z,30.60
2019-06-27T08:03:59.512Z,31.00
2019-06-27T08:06:28.612Z,30.60
2019-06-27T08:08:57.307Z,30.50
2019-06-27T08:11:26.056Z,30.10
2019-06-27T08:13:54.850Z,29.80
2019-06-27T08:16:23.627Z,29.00
2019-06-27T08:18:53.929Z,29.00
2019-06-27T08:21:22.778Z,29.60
2019-06-27T08:23:51.669Z,30.10
2019-06-27T08:26:20.563Z,30.50
2019-06-27T08:28:49.211Z,30.50
2019-06-27T08:31:18.009Z,31.70
2019-06-27T08:33:46.991Z,32.50
2019-06-27T08:36:15.843Z,31.80
2019-06-27T08:38:44.632Z,30.10
2019-06-27T08:41:14.204Z,29.60
2019-06-27T08:43:43.384Z,29.50
2019-06-27T08:46:12.212Z,29.20
2019-06-27T08:48:40.995Z,29.40
2019-06-27T08:51:09.890Z,30.50
2019-06-27T08:53:39.377Z,31.10
2019-06-27T08:56:08.096Z,30.90
2019-06-27T08:58:37.254Z,31.00
2019-06-27T09:01:06.140Z,30.90
2019-06-27T09:03:35.669Z,31.10
2019-06-27T09:06:04.560Z,31.50
2019-06-27T09:08:33.419Z,31.50
2019-06-27T09:11:02.766Z,31.40
2019-06-27T09:13:31.653Z,32.20
2019-06-27T09:16:00.426Z,32.30
2019-06-27T09:18:29.442Z,32.40
2019-06-27T09:20:58.639Z,32.80
2019-06-27T09:23:27.631Z,30.70
2019-06-27T09:25:56.382Z,30.90
2019-06-27T09:28:25.623Z,31.60
2019-06-27T09:30:54.918Z,31.30
2019-06-27T09:33:24.022Z,31.00
2019-06-27T09:35:52.736Z,30.80
2019-06-27T09:38:21.383Z,30.90
2019-06-27T09:40:50.278Z,31.00
2019-06-27T09:43:19.372Z,31.20
2019-06-27T09:45:48.195Z,31.50
2019-06-27T09:48:17.017Z,31.70
2019-06-27T09:50:45.841Z,31.50
2019-06-27T09:53:15.046Z,31.10
2019-06-27T09:55:47.240Z,31.50
2019-06-27T09:58:14.566Z,31.40
2019-06-27T10:00:43.328Z,31.20
2019-06-27T10:03:12.150Z,30.40
2019-06-27T10:05:41.112Z,30.90
2019-06-27T10:08:09.916Z,31.10
2019-06-27T10:10:38.653Z,31.30
2019-06-27T10:13:07.344Z,31.20
2019-06-27T10:15:36.180Z,30.80
2019-06-27T10:18:04.980Z,30.80
2019-06-27T10:20:34.369Z,30.70
2019-06-27T10:23:03.485Z,31.20
2019-06-27T10:25:33.610Z,31.50
2019-06-27T10:28:02.490Z,31.10
2019-06-27T10:30:31.400Z,30.80
2019-06-27T10:33:00.598Z,30.60
2019-06-27T10:35:29.530Z,30.70
2019-06-27T10:37:58.368Z,30.30
2019-06-27T10:40:27.270Z,30.40
2019-06-27T10:42:56.132Z,30.70
2019-06-27T10:45:25.075Z,31.20
2019-06-27T10:47:54.001Z,32.10
2019-06-27T10:50:22.793Z,32.40
2019-06-27T10:52:51.718Z,31.90
2019-06-27T10:55:20.590Z,32.00
2019-06-27T10:57:49.707Z,31.90
2019-06-27T11:00:19.115Z,31.30
2019-06-27T11:02:48.003Z,30.70
2019-06-27T11:05:17.093Z,30.30
2019-06-27T11:07:45.953Z,30.80
2019-06-27T11:10:14.994Z,30.40
2019-06-27T11:12:45.121Z,30.40
2019-06-27T11:15:16.145Z,30.70
2019-06-27T11:17:45.088Z,30.90
2019-06-27T11:20:15.745Z,30.60
2019-06-27T11:22:44.783Z,31.00
2019-06-27T11:25:14.862Z,30.60
2019-06-27T11:27:43.649Z,30.40
2019-06-27T11:30:13.100Z,30.00
2019-06-27T11:32:42.073Z,30.20
2019-06-27T11:35:11.251Z,30.80
2019-06-27T11:37:40.072Z,31.60
2019-06-27T11:40:12.295Z,31.90
2019-06-27T11:42:40.424Z,31.10
2019-06-27T11:45:09.325Z,30.50
2019-06-27T11:47:38.068Z,29.80
2019-06-27T11:50:07.540Z,29.80
2019-06-27T11:52:36.324Z,30.30
2019-06-27T11:55:05.280Z,31.10
2019-06-27T11:57:34.048Z,31.00
2019-06-27T12:00:03.473Z,30.70
2019-06-27T12:02:32.302Z,30.80
2019-06-27T12:05:01.367Z,31.00
2019-06-27T12:07:31.059Z,30.30
2019-06-27T12:09:59.855Z,30.50
2019-06-27T12:12:28.829Z,30.70
2019-06-27T12:14:57.851Z,30.30
2019-06-27T12:17:26.698Z,31.20
2019-06-27T12:19:55.624Z,32.30
2019-06-27T12:22:24.549Z,32.40
2019-06-27T12:24:55.047Z,32.10
2019-06-27T12:27:24.749Z,31.30
2019-06-27T12:29:53.563Z,31.40
2019-06-27T12:32:22.745Z,32.00
2019-06-27T12:34:51.633Z,31.70
2019-06-27T12:37:20.739Z,31.80
2019-06-27T12:39:49.829Z,31.30
2019-06-27T12:42:31.896Z,31.40
2019-06-27T12:44:49.244Z,32.10
2019-06-27T12:47:18.145Z,31.80
2019-06-27T12:50:01.152Z,32.20
2019-06-27T12:52:17.289Z,31.40
2019-06-27T12:54:46.116Z,30.90
2019-06-27T12:57:15.045Z,30.80
2019-06-27T12:59:43.894Z,31.50
2019-06-27T13:02:12.873Z,31.10
2019-06-27T13:04:41.801Z,31.40
2019-06-27T13:07:11.015Z,30.90
2019-06-27T13:09:40.702Z,31.10
2019-06-27T13:12:09.508Z,31.00
2019-06-27T13:14:38.324Z,31.70
2019-06-27T13:17:07.493Z,31.60
2019-06-27T13:19:39.570Z,31.80
2019-06-27T13:22:06.883Z,32.30
2019-06-27T13:24:36.183Z,31.70
2019-06-27T13:27:05.318Z,31.40
2019-06-27T13:29:34.145Z,31.50
2019-06-27T13:32:02.938Z,31.60
2019-06-27T13:34:40.348Z,32.00
2019-06-27T13:37:02.365Z,32.40
2019-06-27T13:39:31.070Z,32.90
2019-06-27T13:41:59.852Z,32.70
2019-06-27T13:44:28.796Z,32.30
2019-06-27T13:46:57.682Z,32.40
2019-06-27T13:49:26.354Z,31.70
2019-06-27T13:51:55.219Z,32.10
2019-06-27T13:54:24.360Z,32.20
2019-06-27T13:56:53.190Z,31.50
2019-06-27T13:59:22.144Z,31.10
2019-06-27T14:01:50.857Z,31.10
2019-06-27T14:04:19.692Z,31.00
2019-06-27T14:06:48.517Z,31.10
2019-06-27T14:09:23.577Z,31.10
2019-06-27T14:11:47.729Z,31.20
2019-06-27T14:14:16.697Z,31.40
2019-06-27T14:16:45.685Z,31.30
2019-06-27T14:19:14.606Z,31.30
2019-06-27T14:21:43.710Z,31.50
2019-06-27T14:24:12.489Z,30.90
2019-06-27T14:26:41.728Z,31.30
2019-06-27T14:29:10.747Z,30.70
2019-06-27T14:31:39.464Z,30.90
2019-06-27T14:34:08.369Z,30.90
2019-06-27T14:36:37.356Z,31.40
2019-06-27T14:39:07.165Z,31.10
2019-06-27T14:41:35.952Z,30.90
2019-06-27T14:44:04.889Z,31.30
2019-06-27T14:46:37.154Z,31.00
2019-06-27T14:49:04.232Z,31.20
2019-06-27T14:51:33.575Z,31.00
2019-06-27T14:54:02.467Z,31.20
2019-06-27T14:56:31.494Z,31.40
2019-06-27T14:59:00.272Z,31.50
2019-06-27T15:01:30.227Z,31.50
2019-06-27T15:03:58.986Z,31.00
2019-06-27T15:06:27.943Z,30.90
2019-06-27T15:08:56.674Z,31.30
2019-06-27T15:11:26.395Z,31.80
2019-06-27T15:13:55.192Z,31.70
2019-06-27T15:16:24.102Z,31.10
2019-06-27T15:18:52.989Z,30.70
2019-06-27T15:21:21.888Z,30.90
2019-06-27T15:23:50.709Z,31.00
2019-06-27T15:26:19.757Z,31.00
2019-06-27T15:28:48.503Z,30.80
2019-06-27T15:31:17.372Z,30.70
2019-06-27T15:33:46.230Z,30.70
2019-06-27T15:36:15.006Z,30.70
2019-06-27T15:38:43.795Z,31.00
2019-06-27T15:41:12.622Z,30.40
2019-06-27T15:43:41.396Z,30.10
2019-06-27T15:46:10.160Z,30.40
2019-06-27T15:48:39.003Z,30.40
2019-06-27T15:51:07.872Z,30.50
2019-06-27T15:53:36.860Z,30.70
2019-06-27T15:56:05.646Z,30.90
2019-06-27T15:58:34.546Z,31.00
2019-06-27T16:01:03.448Z,30.60
2019-06-27T16:03:32.456Z,30.40
2019-06-27T16:06:09.492Z,30.20
2019-06-27T16:08:31.669Z,30.40
2019-06-27T16:11:00.784Z,30.20
2019-06-27T16:13:29.585Z,30.30
2019-06-27T16:15:58.452Z,30.20
2019-06-27T16:18:27.783Z,30.30
2019-06-27T16:20:56.544Z,30.10
2019-06-27T16:23:25.430Z,30.00
2019-06-27T16:25:54.184Z,29.90
2019-06-27T16:28:26.616Z,29.80
2019-06-27T16:30:53.427Z,29.70
2019-06-27T16:33:22.431Z,29.60
2019-06-27T16:35:51.228Z,29.60
2019-06-27T16:38:20.116Z,29.60
2019-06-27T16:40:49.002Z,29.60
2019-06-27T16:43:17.865Z,29.50
2019-06-27T16:45:46.863Z,29.80
2019-06-27T16:48:15.860Z,29.80
2019-06-27T16:50:44.775Z,29.50
2019-06-27T16:53:13.751Z,29.20
2019-06-27T16:55:42.449Z,29.20
2019-06-27T16:58:11.656Z,29.20
2019-06-27T17:00:40.960Z,29.30
2019-06-27T17:03:09.853Z,29.10
2019-06-27T17:05:40.044Z,29.10
2019-06-27T17:08:09.025Z,29.20
2019-06-27T17:10:38.091Z,28.80
2019-06-27T17:13:06.807Z,28.80
2019-06-27T17:15:36.057Z,28.90
2019-06-27T17:18:04.865Z,28.80
2019-06-27T17:20:33.713Z,28.90
2019-06-27T17:23:05.339Z,28.80
2019-06-27T17:25:33.252Z,28.70
2019-06-27T17:28:02.141Z,28.80
2019-06-27T17:30:31.302Z,28.60
2019-06-27T17:33:00.242Z,28.40
2019-06-27T17:35:29.216Z,28.50
2019-06-27T17:37:58.095Z,28.30
2019-06-27T17:40:26.882Z,28.30
2019-06-27T17:42:56.876Z,28.20
2019-06-27T17:45:26.588Z,28.10
2019-06-27T17:47:56.264Z,28.20
2019-06-27T17:50:25.337Z,28.00
2019-06-27T17:52:55.162Z,28.00
2019-06-27T17:55:24.257Z,27.90
2019-06-27T17:57:56.852Z,27.80
2019-06-27T18:00:26.038Z,27.70
2019-06-27T18:02:54.927Z,27.50
2019-06-27T18:05:24.021Z,27.40
2019-06-27T18:07:52.906Z,27.40
2019-06-27T18:10:22.025Z,27.30
2019-06-27T18:12:51.074Z,27.20
2019-06-27T18:15:21.348Z,27.20
2019-06-27T18:17:50.075Z,27.20
2019-06-27T18:20:19.394Z,27.00
2019-06-27T18:22:48.219Z,27.00
2019-06-27T18:25:17.167Z,26.90
2019-06-27T18:27:46.064Z,26.90
2019-06-27T18:30:15.579Z,26.80
2019-06-27T18:32:44.567Z,26.70
2019-06-27T18:35:14.021Z,26.60
2019-06-27T18:37:42.887Z,26.50
2019-06-27T18:40:11.988Z,26.40
2019-06-27T18:42:40.799Z,26.30
2019-06-27T18:45:09.948Z,26.20
2019-06-27T18:47:38.834Z,26.10
2019-06-27T18:50:08.521Z,25.90
2019-06-27T18:52:37.334Z,25.80
2019-06-27T18:55:07.958Z,25.60
2019-06-27T18:57:36.888Z,25.40
2019-06-27T19:00:07.939Z,25.20
2019-06-27T19:02:36.749Z,25.00
2019-06-27T19:05:07.664Z,24.90
2019-06-27T19:07:45.343Z,24.80
2019-06-27T19:10:08.380Z,24.80
2019-06-27T19:12:37.432Z,24.60
2019-06-27T19:15:08.425Z,24.30
2019-06-27T19:17:37.881Z,24.20
2019-06-27T19:20:22.517Z,24.00
2019-06-27T19:23:10.165Z,23.90
2019-06-27T19:25:40.864Z,23.50
2019-06-27T19:28:09.884Z,23.10
2019-06-27T19:30:38.644Z,22.80
2019-06-27T19:33:07.677Z,22.70
2019-06-27T19:35:36.424Z,22.70
2019-06-27T19:38:05.248Z,22.80
2019-06-27T19:40:34.290Z,22.60
2019-06-27T19:43:03.403Z,22.40
2019-06-27T19:45:32.537Z,22.20
2019-06-27T19:48:01.425Z,22.00
2019-06-27T19:50:30.426Z,21.80
2019-06-27T19:52:59.289Z,21.80
2019-06-27T19:55:28.309Z,21.50
2019-06-27T19:57:57.281Z,21.40
2019-06-27T20:00:26.579Z,21.40
2019-06-27T20:02:55.465Z,21.30
2019-06-27T20:05:24.530Z,21.30
2019-06-27T20:07:53.545Z,21.00
2019-06-27T20:10:23.501Z,20.90
2019-06-27T20:12:52.597Z,20.70
2019-06-27T20:15:22.905Z,20.60
2019-06-27T20:17:51.706Z,20.60
2019-06-27T20:20:20.910Z,20.50
2019-06-27T20:22:50.009Z,20.40
2019-06-27T20:25:18.810Z,20.20
2019-06-27T20:27:47.949Z,20.00
2019-06-27T20:30:17.882Z,19.80
2019-06-27T20:50:43.456Z,18.40
2019-06-27T20:53:12.574Z,18.10
2019-06-27T20:55:41.720Z,17.70
2019-06-27T20:58:10.748Z,17.50
2019-06-27T21:00:39.846Z,17.20
2019-06-27T21:03:08.935Z,17.00
2019-06-27T21:05:37.805Z,16.70
2019-06-27T21:08:06.722Z,16.50
2019-06-27T21:10:35.611Z,16.40
2019-06-27T21:13:04.527Z,16.30
2019-06-27T21:15:33.349Z,16.40
2019-06-27T21:18:02.517Z,16.60
2019-06-27T21:20:31.370Z,16.70
2019-06-27T21:23:00.386Z,16.70
2019-06-27T21:25:29.577Z,16.80
2019-06-27T21:27:58.672Z,16.90
2019-06-27T21:30:27.980Z,16.70
2019-06-27T21:32:56.754Z,16.50
2019-06-27T21:35:25.760Z,16.20
2019-06-27T21:37:54.632Z,16.00
2019-06-27T21:40:23.620Z,15.90
2019-06-27T21:42:52.458Z,15.80
2019-06-27T21:45:21.947Z,15.80
2019-06-27T21:47:52.537Z,15.70
2019-06-27T21:50:21.775Z,15.80
2019-06-27T21:52:51.581Z,15.80
2019-06-27T21:55:23.609Z,15.90
2019-06-27T21:57:53.153Z,16.10
2019-06-27T22:00:22.342Z,16.20
2019-06-27T22:02:51.366Z,16.20
2019-06-27T22:05:20.401Z,16.10
2019-06-27T22:07:53.162Z,16.10
2019-06-27T22:10:20.514Z,16.00
2019-06-27T22:12:49.584Z,16.00
2019-06-27T22:15:18.544Z,16.10
2019-06-27T22:17:47.368Z,16.10
2019-06-27T22:20:16.628Z,16.10
2019-06-27T22:22:45.534Z,16.30
2019-06-27T22:25:14.509Z,16.50
2019-06-27T22:27:43.444Z,16.70
2019-06-27T22:30:12.908Z,16.70
2019-06-27T22:32:41.820Z,16.90
2019-06-27T22:35:11.361Z,17.00
2019-06-27T22:37:39.585Z,17.00
2019-06-27T22:40:27.162Z,16.90
2019-06-27T22:43:13.924Z,16.70
2019-06-27T22:46:00.760Z,16.50
2019-06-27T22:48:29.063Z,16.20
2019-06-27T22:51:00.067Z,16.00
2019-06-27T22:53:36.449Z,15.80
2019-06-27T22:56:05.355Z,15.70
2019-06-27T22:58:34.564Z,15.60
2019-06-27T23:01:05.194Z,15.50
2019-06-27T23:03:34.126Z,15.50
2019-06-27T23:06:03.188Z,15.40
2019-06-27T23:08:32.074Z,15.30
2019-06-27T23:11:00.774Z,15.30
2019-06-27T23:13:29.599Z,15.20
2019-06-27T23:15:58.381Z,15.20
2019-06-27T23:18:27.231Z,15.20
2019-06-27T23:20:56.121Z,15.10
2019-06-27T23:23:25.833Z,15.00
2019-06-27T23:25:54.687Z,14.90
2019-06-27T23:28:23.458Z,15.10
2019-06-27T23:30:52.311Z,15.10
2019-06-27T23:33:21.090Z,15.00
2019-06-27T23:35:50.258Z,14.80
2019-06-27T23:38:19.189Z,14.50
2019-06-27T23:40:48.051Z,14.10
2019-06-27T23:43:16.835Z,13.90
2019-06-27T23:45:45.664Z,13.80
2019-06-27T23:48:14.682Z,13.60
2019-06-27T23:50:44.054Z,13.50
2019-06-27T23:53:12.760Z,13.40
2019-06-27T23:55:41.603Z,13.40
2019-06-27T23:58:10.485Z,13.30
